createdAt,value
2023-04-26T00:00:34.045Z,1.23
2023-04-26T00:03:01.916Z,1.10
2023-04-26T00:05:30.019Z,0.90
2023-04-26T00:07:58.271Z,1.20
2023-04-26T00:10:27.441Z,1.20
2023-04-26T00:12:55.153Z,1.27
2023-04-26T00:15:22.970Z,1.43
2023-04-26T00:17:50.679Z,1.00
2023-04-26T00:20:18.478Z,0.77
2023-04-26T00:22:46.625Z,1.20
2023-04-26T00:25:14.470Z,1.03
2023-04-26T00:27:43.443Z,0.90
2023-04-26T00:30:11.818Z,1.23
2023-04-26T00:32:39.525Z,0.97
2023-04-26T00:35:09.038Z,1.23
2023-04-26T00:37:36.722Z,1.10
2023-04-26T00:40:05.104Z,1.30
2023-04-26T00:42:32.802Z,1.20
2023-04-26T00:45:01.854Z,1.17
2023-04-26T00:47:31.510Z,1.00
2023-04-26T00:49:59.981Z,1.50
2023-04-26T00:52:28.980Z,0.90
2023-04-26T00:54:57.282Z,1.00
2023-04-26T00:57:24.973Z,1.07
2023-04-26T00:59:52.619Z,0.93
2023-04-26T01:02:21.707Z,1.33
2023-04-26T01:04:49.460Z,1.00
2023-04-26T01:07:17.238Z,1.20
2023-04-26T01:09:45.786Z,1.00
2023-04-26T01:12:14.382Z,1.20
2023-04-26T01:14:42.030Z,1.00
2023-04-26T01:17:09.640Z,1.03
2023-04-26T01:19:48.203Z,1.30
2023-04-26T01:22:16.127Z,1.20
2023-04-26T01:24:47.385Z,1.10
2023-04-26T01:27:16.677Z,1.07
2023-04-26T01:29:44.526Z,1.40
2023-04-26T01:32:12.867Z,1.20
2023-04-26T01:34:40.492Z,1.37
2023-04-26T01:37:08.435Z,0.97
2023-04-26T01:39:37.423Z,0.93
2023-04-26T01:42:07.079Z,0.70
2023-04-26T01:44:34.683Z,0.70
2023-04-26T01:47:02.392Z,1.10
2023-04-26T01:49:30.484Z,1.00
2023-04-26T01:51:58.118Z,0.93
2023-04-26T01:54:25.729Z,0.87
2023-04-26T01:56:53.401Z,1.10
2023-04-26T01:59:22.693Z,0.90
2023-04-26T02:01:50.592Z,1.00
2023-04-26T02:04:18.242Z,0.93
2023-04-26T02:06:45.855Z,0.90
2023-04-26T02:09:13.760Z,1.57
2023-04-26T02:11:41.455Z,0.80
2023-04-26T02:14:09.058Z,0.80
2023-04-26T02:16:38.145Z,1.10
2023-04-26T02:19:10.829Z,0.80
2023-04-26T02:21:52.682Z,0.87
2023-04-26T02:24:21.517Z,1.10
2023-04-26T02:26:49.130Z,1.00
2023-04-26T02:29:17.032Z,1.00
2023-04-26T02:31:46.054Z,0.70
2023-04-26T02:34:13.916Z,0.73
2023-04-26T02:36:41.547Z,0.90
2023-04-26T02:39:09.917Z,0.70
2023-04-26T02:41:37.497Z,0.80
2023-04-26T02:44:05.300Z,1.23
2023-04-26T02:46:32.927Z,0.90
2023-04-26T02:49:01.893Z,0.90
2023-04-26T02:51:29.583Z,0.90
2023-04-26T02:53:57.242Z,0.73
2023-04-26T02:56:25.017Z,1.13
2023-04-26T02:58:52.988Z,1.00
2023-04-26T03:01:21.092Z,0.70
2023-04-26T03:03:49.389Z,1.10
2023-04-26T03:06:18.446Z,4.00
2023-04-26T03:08:46.114Z,0.70
2023-04-26T03:11:13.745Z,0.90
2023-04-26T03:13:41.373Z,1.03
2023-04-26T03:16:09.463Z,0.70
2023-04-26T03:18:37.479Z,1.03
2023-04-26T03:21:05.121Z,0.90
2023-04-26T03:23:34.173Z,1.07
2023-04-26T03:26:01.776Z,1.10
2023-04-26T03:28:29.372Z,0.83
2023-04-26T03:30:57.156Z,0.77
2023-04-26T03:33:24.846Z,0.80
2023-04-26T03:35:52.559Z,1.00
2023-04-26T03:38:20.299Z,0.70
2023-04-26T03:40:49.239Z,1.27
2023-04-26T03:43:16.854Z,0.83
2023-04-26T03:45:48.749Z,0.90
2023-04-26T03:48:16.841Z,0.70
2023-04-26T03:50:45.998Z,1.07
2023-04-26T03:53:13.974Z,1.43
2023-04-26T03:55:41.641Z,1.10
2023-04-26T03:58:10.714Z,1.27
2023-04-26T04:00:38.669Z,0.80
2023-04-26T04:03:06.703Z,0.80
2023-04-26T04:05:34.832Z,1.07
2023-04-26T04:08:03.059Z,0.70
2023-04-26T04:10:31.214Z,0.83
2023-04-26T04:12:59.233Z,0.77
2023-04-26T04:15:28.330Z,1.07
2023-04-26T04:17:56.045Z,0.87
2023-04-26T04:20:23.788Z,1.30
2023-04-26T04:22:51.750Z,1.13
2023-04-26T04:25:21.270Z,0.70
2023-04-26T04:27:50.236Z,1.00
2023-04-26T04:30:17.956Z,1.40
2023-04-26T04:32:47.112Z,0.90
2023-04-26T04:35:14.968Z,0.70
2023-04-26T04:37:44.111Z,0.67
2023-04-26T04:40:13.324Z,1.20
2023-04-26T04:42:41.097Z,0.87
2023-04-26T04:45:09.817Z,0.70
2023-04-26T04:47:39.673Z,1.00
2023-04-26T04:50:09.845Z,0.83
2023-04-26T04:52:37.822Z,0.60
2023-04-26T04:55:06.248Z,0.93
2023-04-26T04:57:33.926Z,0.80
2023-04-26T05:00:10.457Z,0.83
2023-04-26T05:02:38.408Z,0.93
2023-04-26T05:05:08.387Z,0.67
2023-04-26T05:07:36.196Z,1.07
2023-04-26T05:10:04.665Z,1.70
2023-04-26T05:12:32.339Z,0.80
2023-04-26T05:14:59.908Z,0.80
2023-04-26T05:17:27.581Z,0.90
2023-04-26T05:19:55.298Z,0.77
2023-04-26T05:22:24.275Z,1.03
2023-04-26T05:24:52.228Z,0.77
2023-04-26T05:27:19.964Z,0.97
2023-04-26T05:29:48.538Z,0.80
2023-04-26T05:32:16.297Z,0.70
2023-04-26T05:34:43.902Z,0.80
2023-04-26T05:37:11.480Z,0.70
2023-04-26T05:39:40.471Z,0.70
2023-04-26T05:42:08.138Z,0.80
2023-04-26T05:44:36.063Z,0.80
2023-04-26T05:47:03.698Z,1.00
2023-04-26T05:49:31.374Z,0.83
2023-04-26T05:52:00.505Z,0.80
2023-04-26T05:54:28.106Z,0.83
2023-04-26T05:56:58.975Z,0.80
2023-04-26T05:59:26.919Z,1.17
2023-04-26T06:01:54.576Z,0.70
2023-04-26T06:04:22.318Z,0.93
2023-04-26T06:06:50.245Z,1.13
2023-04-26T06:09:19.660Z,1.20
2023-04-26T06:11:47.836Z,0.80
2023-04-26T06:14:29.472Z,0.70
2023-04-26T06:16:58.477Z,0.70
2023-04-26T06:19:26.210Z,1.13
2023-04-26T06:21:55.292Z,0.83
2023-04-26T06:24:23.981Z,0.80
2023-04-26T06:26:51.672Z,1.10
2023-04-26T06:29:21.740Z,1.40
2023-04-26T06:31:49.602Z,1.67
2023-04-26T06:34:17.210Z,0.77
2023-04-26T06:36:44.836Z,0.80
2023-04-26T06:39:12.492Z,1.00
2023-04-26T06:41:40.074Z,0.90
2023-04-26T06:44:07.683Z,0.77
2023-04-26T06:46:38.061Z,1.00
2023-04-26T06:49:05.784Z,0.80
2023-04-26T06:51:33.421Z,1.23
2023-04-26T06:54:01.393Z,0.83
2023-04-26T06:56:29.038Z,0.93
2023-04-26T06:59:01.485Z,1.00
2023-04-26T07:01:29.505Z,0.83
2023-04-26T07:03:58.935Z,1.00
2023-04-26T07:06:27.760Z,0.97
2023-04-26T07:08:55.487Z,1.50
2023-04-26T07:11:25.306Z,1.30
2023-04-26T07:13:54.019Z,1.23
2023-04-26T07:16:21.828Z,1.30
2023-04-26T07:18:49.617Z,1.07
2023-04-26T07:21:18.587Z,0.97
2023-04-26T07:23:46.288Z,0.87
2023-04-26T07:26:13.933Z,1.00
2023-04-26T07:28:41.602Z,1.43
2023-04-26T07:31:10.657Z,1.13
2023-04-26T07:33:38.836Z,1.10
2023-04-26T07:36:06.933Z,0.80
2023-04-26T07:38:36.011Z,0.80
2023-04-26T07:41:04.562Z,1.63
2023-04-26T07:43:33.063Z,1.03
2023-04-26T07:46:02.120Z,0.80
2023-04-26T07:48:30.083Z,0.77
2023-04-26T07:50:57.864Z,1.10
2023-04-26T07:53:25.552Z,0.87
2023-04-26T07:55:54.742Z,1.20
2023-04-26T07:58:22.328Z,1.10
2023-04-26T08:00:49.944Z,0.80
2023-04-26T08:03:18.062Z,1.30
2023-04-26T08:05:46.168Z,1.10
2023-04-26T08:08:14.025Z,0.93
2023-04-26T08:10:42.678Z,0.93
2023-04-26T08:13:11.751Z,1.10
2023-04-26T08:15:39.338Z,0.90
2023-04-26T08:18:07.516Z,0.93
2023-04-26T08:20:35.178Z,1.20
2023-04-26T08:23:02.835Z,1.30
2023-04-26T08:25:30.645Z,1.10
2023-04-26T08:27:58.228Z,1.10
2023-04-26T08:30:27.207Z,1.00
2023-04-26T08:32:54.825Z,1.63
2023-04-26T08:35:22.691Z,1.03
2023-04-26T08:37:50.651Z,1.00
2023-04-26T08:40:25.200Z,2.00
2023-04-26T08:42:53.743Z,1.20
2023-04-26T08:45:22.483Z,1.00
2023-04-26T08:47:54.126Z,1.30
2023-04-26T08:50:23.354Z,1.00
2023-04-26T08:52:52.443Z,1.43
2023-04-26T08:55:21.896Z,1.30
2023-04-26T08:57:51.696Z,1.00
2023-04-26T09:00:20.374Z,1.20
2023-04-26T09:02:51.110Z,1.10
2023-04-26T09:05:24.376Z,1.30
2023-04-26T09:07:54.504Z,0.83
2023-04-26T09:10:23.287Z,1.17
2023-04-26T09:12:52.796Z,1.00
2023-04-26T09:15:22.698Z,0.90
2023-04-26T09:17:51.540Z,1.30
2023-04-26T09:20:23.537Z,0.90
2023-04-26T09:22:52.342Z,0.90
2023-04-26T09:25:27.789Z,1.30
2023-04-26T09:27:55.545Z,0.80
2023-04-26T09:30:23.632Z,0.90
2023-04-26T09:32:53.955Z,0.80
2023-04-26T09:35:33.318Z,1.50
2023-04-26T09:38:09.596Z,0.90
2023-04-26T09:40:41.024Z,1.10
2023-04-26T09:43:11.535Z,1.00
2023-04-26T09:45:46.625Z,1.50
2023-04-26T09:48:16.898Z,0.87
2023-04-26T09:50:46.954Z,1.50
2023-04-26T09:53:29.797Z,1.00
2023-04-26T09:55:58.340Z,1.13
2023-04-26T09:58:25.974Z,1.20
2023-04-26T10:00:54.617Z,1.33
2023-04-26T10:03:24.164Z,1.13
2023-04-26T10:05:53.756Z,1.00
2023-04-26T10:08:21.379Z,1.00
2023-04-26T10:10:49.016Z,0.97
2023-04-26T10:13:16.802Z,1.23
2023-04-26T10:15:44.683Z,1.17
2023-04-26T10:18:12.305Z,1.17
2023-04-26T10:20:42.822Z,1.70
2023-04-26T10:23:20.933Z,2.27
2023-04-26T10:25:49.184Z,1.13
2023-04-26T10:28:17.481Z,0.90
2023-04-26T10:30:58.811Z,1.20
2023-04-26T10:33:27.283Z,1.13
2023-04-26T10:36:07.504Z,1.10
2023-04-26T10:38:37.950Z,1.40
2023-04-26T10:41:34.958Z,1.10
2023-04-26T10:44:35.929Z,1.33
2023-04-26T10:47:03.664Z,1.37
2023-04-26T10:49:45.763Z,1.20
2023-04-26T10:52:15.105Z,1.13
2023-04-26T10:54:57.311Z,0.87
2023-04-26T10:57:46.279Z,1.27
2023-04-26T11:00:20.935Z,0.80
2023-04-26T11:02:55.923Z,1.50
2023-04-26T11:05:37.823Z,1.23
2023-04-26T11:08:06.804Z,0.80
2023-04-26T11:10:38.941Z,1.37
2023-04-26T11:13:06.611Z,1.20
2023-04-26T11:15:35.182Z,1.33
2023-04-26T11:18:04.321Z,1.17
2023-04-26T11:20:32.905Z,0.80
2023-04-26T11:23:00.976Z,1.17
2023-04-26T11:25:29.087Z,1.00
2023-04-26T11:28:04.552Z,1.07
2023-04-26T11:30:32.790Z,1.90
2023-04-26T11:33:00.580Z,1.10
2023-04-26T11:35:29.856Z,1.30
2023-04-26T11:38:01.223Z,1.20
2023-04-26T11:40:31.117Z,1.37
2023-04-26T11:43:03.360Z,1.07
2023-04-26T11:45:35.871Z,1.20
2023-04-26T11:48:05.781Z,1.47
2023-04-26T11:50:34.776Z,1.30
2023-04-26T11:53:04.774Z,0.90
2023-04-26T11:55:33.994Z,1.57
2023-04-26T11:58:01.789Z,1.10
2023-04-26T12:00:29.425Z,1.30
2023-04-26T12:02:59.896Z,1.23
2023-04-26T12:05:30.665Z,1.40
2023-04-26T12:07:59.897Z,1.17
2023-04-26T12:10:29.529Z,1.27
2023-04-26T12:12:59.681Z,0.90
2023-04-26T12:15:33.570Z,1.00
2023-04-26T12:18:08.771Z,1.00
2023-04-26T12:20:37.786Z,1.10
2023-04-26T12:23:07.704Z,1.20
2023-04-26T12:25:36.709Z,1.20
2023-04-26T12:28:05.836Z,1.20
2023-04-26T12:30:33.537Z,2.13
2023-04-26T12:33:15.574Z,1.87
2023-04-26T12:35:44.637Z,1.20
2023-04-26T12:38:13.258Z,1.20
2023-04-26T12:40:41.733Z,1.27
2023-04-26T12:43:09.741Z,0.83
2023-04-26T12:45:37.507Z,1.87
2023-04-26T12:48:06.887Z,1.47
2023-04-26T12:50:34.663Z,1.40
2023-04-26T12:53:02.304Z,1.30
2023-04-26T12:55:32.497Z,1.33
2023-04-26T12:58:00.692Z,1.20
2023-04-26T13:00:28.326Z,1.30
2023-04-26T13:02:56.016Z,1.40
2023-04-26T13:05:25.580Z,1.40
2023-04-26T13:07:53.320Z,1.50
2023-04-26T13:10:20.950Z,1.07
2023-04-26T13:12:48.589Z,1.30
2023-04-26T13:15:17.521Z,1.10
2023-04-26T13:17:45.662Z,1.23
2023-04-26T13:20:14.339Z,1.10
2023-04-26T13:22:43.478Z,1.00
2023-04-26T13:25:13.093Z,1.17
2023-04-26T13:27:41.121Z,1.10
2023-04-26T13:30:10.113Z,1.37
2023-04-26T13:32:37.831Z,1.20
2023-04-26T13:35:06.179Z,1.20
2023-04-26T13:37:34.347Z,1.10
2023-04-26T13:40:03.983Z,1.00
2023-04-26T13:42:32.486Z,1.03
2023-04-26T13:45:01.314Z,2.13
2023-04-26T13:47:29.285Z,1.40
2023-04-26T13:49:56.955Z,1.20
2023-04-26T13:52:24.631Z,1.33
2023-04-26T13:54:53.020Z,1.17
2023-04-26T13:57:22.007Z,1.30
2023-04-26T13:59:49.625Z,1.30
2023-04-26T14:02:17.383Z,1.40
2023-04-26T14:04:45.472Z,1.23
2023-04-26T14:07:13.282Z,1.17
2023-04-26T14:09:41.411Z,0.97
2023-04-26T14:12:10.082Z,1.10
2023-04-26T14:14:39.038Z,1.37
2023-04-26T14:17:06.595Z,1.10
2023-04-26T14:19:34.244Z,1.27
2023-04-26T14:22:01.880Z,1.00
2023-04-26T14:24:29.488Z,1.30
2023-04-26T14:26:58.338Z,1.40
2023-04-26T14:29:26.001Z,1.40
2023-04-26T14:31:55.048Z,1.20
2023-04-26T14:34:23.636Z,1.40
2023-04-26T14:36:51.297Z,1.23
2023-04-26T14:39:18.888Z,1.30
2023-04-26T14:41:46.471Z,1.30
2023-04-26T14:44:14.095Z,1.23
2023-04-26T14:46:41.790Z,1.00
2023-04-26T14:49:11.078Z,1.30
2023-04-26T14:51:38.666Z,1.40
2023-04-26T14:54:06.455Z,1.37
2023-04-26T14:56:34.683Z,1.00
2023-04-26T14:59:02.580Z,1.20
2023-04-26T15:01:30.437Z,1.30
2023-04-26T15:04:00.441Z,1.03
2023-04-26T15:06:32.122Z,1.13
2023-04-26T15:08:59.922Z,0.90
2023-04-26T15:11:27.490Z,1.20
2023-04-26T15:13:55.147Z,1.10
2023-04-26T15:16:22.916Z,1.00
2023-04-26T15:18:50.557Z,1.40
2023-04-26T15:21:18.215Z,1.00
2023-04-26T15:23:47.206Z,1.13
2023-04-26T15:26:15.103Z,1.10
2023-04-26T15:28:42.719Z,1.30
2023-04-26T15:31:11.950Z,1.30
2023-04-26T15:33:39.691Z,1.50
2023-04-26T15:36:08.428Z,1.10
2023-04-26T15:38:36.898Z,1.27
2023-04-26T15:41:06.536Z,1.10
2023-04-26T15:43:34.270Z,1.00
2023-04-26T15:46:01.935Z,1.37
2023-04-26T15:48:29.589Z,1.30
2023-04-26T15:50:57.928Z,1.00
2023-04-26T15:53:26.061Z,0.90
2023-04-26T15:55:53.798Z,1.23
2023-04-26T15:58:22.832Z,1.07
2023-04-26T16:00:50.495Z,1.27
2023-04-26T16:03:18.289Z,1.20
2023-04-26T16:05:46.113Z,1.30
2023-04-26T16:08:17.652Z,1.10
2023-04-26T16:10:52.140Z,1.13
2023-04-26T16:13:19.912Z,1.20
2023-04-26T16:15:49.066Z,1.20
2023-04-26T16:18:16.697Z,1.43
2023-04-26T16:20:44.330Z,1.50
2023-04-26T16:23:12.082Z,1.10
2023-04-26T16:25:40.154Z,32.67
2023-04-26T16:28:09.540Z,19.33
2023-04-26T16:30:38.339Z,16.07
2023-04-26T16:33:10.084Z,19.90
2023-04-26T16:35:38.008Z,16.70
2023-04-26T16:38:05.681Z,11.70
2023-04-26T16:40:33.620Z,14.27
2023-04-26T16:43:01.256Z,12.97
2023-04-26T16:45:28.883Z,13.87
2023-04-26T16:47:56.753Z,10.27
2023-04-26T16:50:25.985Z,6.63
2023-04-26T16:52:53.712Z,11.73
2023-04-26T16:55:21.455Z,10.23
2023-04-26T16:57:49.068Z,9.27
2023-04-26T17:00:17.911Z,6.67
2023-04-26T17:02:45.627Z,6.73
2023-04-26T17:05:14.155Z,4.93
2023-04-26T17:07:43.148Z,6.03
2023-04-26T17:10:11.304Z,6.20
2023-04-26T17:12:38.915Z,7.67
2023-04-26T17:15:08.576Z,6.13
2023-04-26T17:17:36.228Z,4.70
2023-04-26T17:20:06.365Z,5.60
2023-04-26T17:22:34.017Z,3.13
2023-04-26T17:25:04.820Z,3.37
2023-04-26T17:27:32.392Z,7.47
2023-04-26T17:30:00.055Z,6.30
2023-04-26T17:32:28.005Z,3.10
2023-04-26T17:34:56.038Z,4.33
2023-04-26T17:37:23.777Z,3.17
2023-04-26T17:39:51.378Z,2.23
2023-04-26T17:42:20.698Z,3.77
2023-04-26T17:44:48.338Z,2.73
2023-04-26T17:47:15.905Z,3.63
2023-04-26T17:49:43.550Z,2.87
2023-04-26T17:52:11.181Z,1.87
2023-04-26T17:54:38.774Z,3.57
2023-04-26T17:57:07.732Z,3.57
2023-04-26T17:59:37.145Z,4.13
2023-04-26T18:02:04.775Z,2.90
2023-04-26T18:04:32.647Z,5.60
2023-04-26T18:07:01.178Z,2.40
2023-04-26T18:09:28.765Z,2.70
2023-04-26T18:11:56.403Z,2.47
2023-04-26T18:14:24.942Z,1.83
2023-04-26T18:16:53.937Z,2.17
2023-04-26T18:19:21.593Z,3.87
2023-04-26T18:21:52.158Z,3.17
2023-04-26T18:24:20.101Z,2.47
2023-04-26T18:26:47.818Z,1.97
2023-04-26T18:29:15.370Z,3.63
2023-04-26T18:31:43.058Z,1.77
2023-04-26T18:34:12.052Z,3.17
2023-04-26T18:36:39.651Z,4.20
2023-04-26T18:39:07.997Z,2.50
2023-04-26T18:41:35.590Z,2.20
2023-04-26T18:44:03.178Z,2.63
2023-04-26T18:46:31.044Z,2.80
2023-04-26T18:48:58.695Z,4.80
2023-04-26T18:51:27.676Z,2.87
2023-04-26T18:53:55.773Z,1.87
2023-04-26T18:56:23.645Z,1.70
2023-04-26T18:58:51.678Z,2.13
2023-04-26T19:01:19.328Z,1.73
2023-04-26T19:03:48.476Z,2.20
2023-04-26T19:06:16.503Z,1.67
2023-04-26T19:08:46.247Z,2.57
2023-04-26T19:11:14.315Z,1.87
2023-04-26T19:13:42.775Z,1.63
2023-04-26T19:16:11.065Z,1.73
2023-04-26T19:18:40.500Z,2.10
2023-04-26T19:21:09.323Z,1.67
2023-04-26T19:23:37.719Z,2.37
2023-04-26T19:26:09.055Z,2.50
2023-04-26T19:28:37.577Z,1.60
2023-04-26T19:31:05.360Z,2.33
2023-04-26T19:33:33.066Z,1.73
2023-04-26T19:36:00.675Z,3.20
2023-04-26T19:38:28.290Z,1.60
2023-04-26T19:40:55.928Z,1.43
2023-04-26T19:43:24.879Z,1.77
2023-04-26T19:45:52.509Z,2.43
2023-04-26T19:48:20.125Z,1.70
2023-04-26T19:50:48.009Z,1.60
2023-04-26T19:53:16.221Z,1.50
2023-04-26T19:55:43.990Z,2.07
2023-04-26T19:58:11.696Z,2.83
2023-04-26T20:00:40.732Z,1.63
2023-04-26T20:03:08.592Z,2.03
2023-04-26T20:05:36.403Z,2.17
2023-04-26T20:08:04.200Z,1.70
2023-04-26T20:10:33.536Z,1.80
2023-04-26T20:13:01.395Z,3.30
2023-04-26T20:15:32.157Z,1.50
2023-04-26T20:18:02.886Z,1.80
2023-04-26T20:20:30.638Z,2.20
2023-04-26T20:22:58.223Z,2.10
2023-04-26T20:25:26.104Z,1.90
2023-04-26T20:27:53.811Z,2.03
2023-04-26T20:30:21.445Z,1.60
2023-04-26T20:32:49.152Z,1.07
2023-04-26T20:35:18.301Z,1.90
2023-04-26T20:37:45.872Z,3.77
2023-04-26T20:40:13.651Z,1.43
2023-04-26T20:42:41.309Z,1.60
2023-04-26T20:45:10.083Z,2.60
2023-04-26T20:47:37.979Z,1.40
2023-04-26T20:50:06.466Z,2.33
2023-04-26T20:52:35.507Z,2.50
2023-04-26T20:55:03.220Z,1.53
2023-04-26T20:57:30.829Z,2.00
2023-04-26T20:59:58.522Z,1.40
2023-04-26T21:02:26.593Z,1.60
2023-04-26T21:04:54.509Z,1.57
2023-04-26T21:07:22.162Z,1.53
2023-04-26T21:09:51.177Z,1.63
2023-04-26T21:12:18.774Z,2.83
2023-04-26T21:14:47.839Z,1.80
2023-04-26T21:17:15.533Z,1.60
2023-04-26T21:19:43.451Z,1.20
2023-04-26T21:22:11.758Z,1.43
2023-04-26T21:24:39.416Z,1.40
2023-04-26T21:27:08.435Z,2.10
2023-04-26T21:29:36.077Z,2.07
2023-04-26T21:32:03.781Z,1.97
2023-04-26T21:34:31.516Z,1.80
2023-04-26T21:36:59.121Z,5.47
2023-04-26T21:39:26.702Z,29.10
2023-04-26T21:41:54.357Z,19.53
2023-04-26T21:44:23.329Z,12.70
2023-04-26T21:46:51.091Z,13.03
2023-04-26T21:49:18.769Z,8.40
2023-04-26T21:51:46.355Z,7.00
2023-04-26T21:54:14.162Z,10.60
2023-04-26T21:56:41.890Z,9.33
2023-04-26T21:59:10.325Z,8.80
2023-04-26T22:01:39.470Z,5.37
2023-04-26T22:04:07.169Z,7.37
2023-04-26T22:06:34.843Z,7.80
2023-04-26T22:09:03.384Z,2.57
2023-04-26T22:11:31.188Z,5.67
2023-04-26T22:13:58.797Z,6.90
2023-04-26T22:16:26.498Z,4.87
2023-04-26T22:18:55.462Z,7.60
2023-04-26T22:21:23.228Z,3.40
2023-04-26T22:23:50.979Z,5.43
2023-04-26T22:26:18.627Z,6.37
2023-04-26T22:28:46.257Z,3.70
2023-04-26T22:31:13.883Z,3.73
2023-04-26T22:33:41.510Z,5.13
2023-04-26T22:36:10.973Z,4.47
2023-04-26T22:38:38.615Z,3.17
2023-04-26T22:41:07.268Z,2.40
2023-04-26T22:43:35.950Z,3.73
2023-04-26T22:46:03.636Z,6.27
2023-04-26T22:48:31.268Z,3.87
2023-04-26T22:50:59.941Z,3.97
2023-04-26T22:53:28.912Z,3.97
2023-04-26T22:55:56.461Z,4.20
2023-04-26T22:58:24.074Z,3.80
2023-04-26T23:00:51.695Z,3.07
2023-04-26T23:03:19.455Z,2.93
2023-04-26T23:05:47.346Z,3.67
2023-04-26T23:08:14.947Z,3.07
2023-04-26T23:10:43.880Z,2.80
2023-04-26T23:13:11.461Z,3.33
2023-04-26T23:15:39.160Z,2.67
2023-04-26T23:18:07.080Z,3.17
2023-04-26T23:20:34.687Z,3.57
2023-04-26T23:23:02.294Z,3.13
2023-04-26T23:25:29.860Z,2.00
2023-04-26T23:27:58.870Z,3.47
2023-04-26T23:30:26.753Z,2.30
2023-04-26T23:32:54.482Z,3.27
2023-04-26T23:35:22.126Z,3.20
2023-04-26T23:37:52.254Z,2.80
2023-04-26T23:40:20.259Z,3.63
2023-04-26T23:42:47.875Z,2.03
2023-04-26T23:45:18.629Z,2.00
2023-04-26T23:47:46.469Z,2.90
2023-04-26T23:50:14.025Z,2.33
2023-04-26T23:52:41.627Z,2.40
2023-04-26T23:55:10.223Z,2.57
2023-04-26T23:57:37.911Z,2.73
